createdAt,value
2019-02-06T00:00:53.519Z,1019.34
2019-02-06T00:01:52.865Z,1019.34
2019-02-06T00:02:52.845Z,1019.32
2019-02-06T00:03:52.911Z,1019.39
2019-02-06T00:04:53.374Z,1019.38
2019-02-06T00:05:53.536Z,1019.40
2019-02-06T00:06:52.815Z,1019.41
2019-02-06T00:07:52.727Z,1019.38
2019-02-06T00:08:52.841Z,1019.40
2019-02-06T00:09:53.176Z,1019.39
2019-02-06T00:10:53.325Z,1019.44
2019-02-06T00:11:52.542Z,1019.38
2019-02-06T00:12:52.624Z,1019.42
2019-02-06T00:13:52.653Z,1019.40
2019-02-06T00:15:52.911Z,1019.36
2019-02-06T00:16:53.016Z,1019.38
2019-02-06T00:18:52.860Z,1019.44
2019-02-06T00:19:52.368Z,1019.47
2019-02-06T00:20:52.626Z,1019.45
2019-02-06T00:21:52.713Z,1019.46
2019-02-06T00:22:52.663Z,1019.51
2019-02-06T00:24:52.916Z,1019.47
2019-02-06T00:25:52.229Z,1019.48
2019-02-06T00:26:52.260Z,1019.46
2019-02-06T00:27:52.526Z,1019.48
2019-02-06T00:28:52.849Z,1019.48
2019-02-06T00:29:52.147Z,1019.45
2019-02-06T00:30:52.162Z,1019.44
2019-02-06T00:32:52.045Z,1019.43
2019-02-06T00:33:52.071Z,1019.39
2019-02-06T00:34:52.075Z,1019.36
2019-02-06T00:35:52.016Z,1019.34
2019-02-06T00:36:52.632Z,1019.38
2019-02-06T00:37:51.970Z,1019.34
2019-02-06T00:38:52.645Z,1019.34
2019-02-06T00:39:51.955Z,1019.35
2019-02-06T00:40:52.031Z,1019.31
2019-02-06T00:41:51.752Z,1019.42
2019-02-06T00:42:51.735Z,1019.40
2019-02-06T00:43:51.855Z,1019.37
2019-02-06T00:45:51.911Z,1019.39
2019-02-06T00:46:51.705Z,1019.35
2019-02-06T00:47:51.720Z,1019.39
2019-02-06T00:48:51.579Z,1019.38
2019-02-06T00:49:51.618Z,1019.37
2019-02-06T00:50:51.524Z,1019.37
2019-02-06T00:51:51.499Z,1019.39
2019-02-06T00:53:51.448Z,1019.36
2019-02-06T00:54:51.431Z,1019.35
2019-02-06T00:55:51.393Z,1019.35
2019-02-06T00:56:51.464Z,1019.35
2019-02-06T00:57:51.411Z,1019.34
2019-02-06T00:58:51.702Z,1019.33
2019-02-06T00:59:51.662Z,1019.30
2019-02-06T01:00:51.466Z,1019.33
2019-02-06T01:01:51.315Z,1019.31
2019-02-06T01:02:51.217Z,1019.33
2019-02-06T01:03:51.203Z,1019.31
2019-02-06T01:04:51.673Z,1019.26
2019-02-06T01:05:51.139Z,1019.24
2019-02-06T01:06:51.117Z,1019.27
2019-02-06T01:07:51.151Z,1019.28
2019-02-06T01:08:51.216Z,1019.27
2019-02-06T01:09:51.150Z,1019.22
2019-02-06T01:10:51.440Z,1019.22
2019-02-06T01:11:51.067Z,1019.22
2019-02-06T01:12:51.199Z,1019.25
2019-02-06T01:13:51.131Z,1019.18
2019-02-06T01:14:50.927Z,1019.22
2019-02-06T01:15:51.053Z,1019.19
2019-02-06T01:16:51.671Z,1019.19
2019-02-06T01:17:50.875Z,1019.20
2019-02-06T01:18:50.989Z,1019.18
2019-02-06T01:19:50.808Z,1019.20
2019-02-06T01:20:50.806Z,1019.19
2019-02-06T01:21:50.814Z,1019.19
2019-02-06T01:22:51.107Z,1019.22
2019-02-06T01:23:50.829Z,1019.22
2019-02-06T01:24:50.718Z,1019.22
2019-02-06T01:25:50.964Z,1019.18
2019-02-06T01:26:50.682Z,1019.12
2019-02-06T01:27:50.652Z,1019.15
2019-02-06T01:28:50.879Z,1019.15
2019-02-06T01:29:50.532Z,1019.16
2019-02-06T01:30:51.015Z,1019.14
2019-02-06T01:31:50.513Z,1019.12
2019-02-06T01:32:50.559Z,1019.12
2019-02-06T01:33:50.587Z,1019.10
2019-02-06T01:34:50.616Z,1019.06
2019-02-06T01:35:50.829Z,1019.10
2019-02-06T01:36:50.357Z,1019.11
2019-02-06T01:37:50.455Z,1019.10
2019-02-06T01:38:50.369Z,1019.08
2019-02-06T01:39:50.425Z,1019.04
2019-02-06T01:40:50.337Z,1019.08
2019-02-06T01:42:50.561Z,1019.05
2019-02-06T01:43:50.228Z,1019.08
2019-02-06T01:44:50.219Z,1019.04
2019-02-06T01:45:50.176Z,1019.05
2019-02-06T01:46:50.107Z,1019.05
2019-02-06T01:48:50.567Z,1019.00
2019-02-06T01:50:50.160Z,1019.04
2019-02-06T01:51:49.978Z,1019.06
2019-02-06T01:52:50.043Z,1019.06
2019-02-06T01:53:50.089Z,1019.07
2019-02-06T01:54:49.892Z,1019.12
2019-02-06T01:55:50.221Z,1019.08
2019-02-06T01:56:49.978Z,1019.10
2019-02-06T01:57:49.860Z,1019.05
2019-02-06T01:58:50.705Z,1019.03
2019-02-06T02:00:50.164Z,1019.01
2019-02-06T02:01:49.846Z,1018.96
2019-02-06T02:02:50.090Z,1018.95
2019-02-06T02:03:49.785Z,1018.92
2019-02-06T02:04:50.495Z,1018.96
2019-02-06T02:06:01.328Z,1018.93
2019-02-06T02:06:49.658Z,1018.94
2019-02-06T02:07:49.667Z,1018.91
2019-02-06T02:08:49.682Z,1018.91
2019-02-06T02:09:49.950Z,1018.90
2019-02-06T02:10:49.722Z,1018.93
2019-02-06T02:11:49.946Z,1018.95
2019-02-06T02:12:49.547Z,1018.97
2019-02-06T02:15:49.515Z,1019.00
2019-02-06T02:16:49.788Z,1018.97
2019-02-06T02:18:49.360Z,1019.02
2019-02-06T02:19:49.257Z,1019.00
2019-02-06T02:20:49.233Z,1018.97
2019-02-06T02:22:49.656Z,1019.00
2019-02-06T02:23:49.219Z,1018.99
2019-02-06T02:24:49.684Z,1018.97
2019-02-06T02:25:49.712Z,1018.90
2019-02-06T02:26:49.214Z,1018.93
2019-02-06T02:27:49.074Z,1018.88
2019-02-06T02:29:49.168Z,1018.88
2019-02-06T02:30:49.083Z,1018.85
2019-02-06T02:31:49.011Z,1018.83
2019-02-06T02:32:49.021Z,1018.84
2019-02-06T02:33:49.019Z,1018.83
2019-02-06T02:34:49.495Z,1018.83
2019-02-06T02:35:48.942Z,1018.81
2019-02-06T02:36:48.831Z,1018.86
2019-02-06T02:37:48.802Z,1018.81
2019-02-06T02:38:48.863Z,1018.83
2019-02-06T02:39:48.811Z,1018.81
2019-02-06T02:40:49.850Z,1018.82
2019-02-06T02:41:48.818Z,1018.77
2019-02-06T02:42:48.722Z,1018.77
2019-02-06T02:43:48.688Z,1018.74
2019-02-06T02:44:48.751Z,1018.73
2019-02-06T02:45:49.045Z,1018.71
2019-02-06T02:48:49.167Z,1018.70
2019-02-06T02:49:48.549Z,1018.67
2019-02-06T02:50:48.470Z,1018.64
2019-02-06T02:51:48.550Z,1018.68
2019-02-06T02:52:48.457Z,1018.69
2019-02-06T02:53:48.396Z,1018.70
2019-02-06T02:54:49.203Z,1018.67
2019-02-06T02:55:48.488Z,1018.71
2019-02-06T02:56:48.390Z,1018.69
2019-02-06T02:57:48.306Z,1018.63
2019-02-06T02:58:48.268Z,1018.63
2019-02-06T02:59:48.323Z,1018.64
2019-02-06T03:02:48.556Z,1018.59
2019-02-06T03:03:48.199Z,1018.60
2019-02-06T03:04:48.173Z,1018.60
2019-02-06T03:05:48.193Z,1018.59
2019-02-06T03:06:48.548Z,1018.60
2019-02-06T03:07:48.247Z,1018.59
2019-02-06T03:10:48.485Z,1018.55
2019-02-06T03:11:48.382Z,1018.49
2019-02-06T03:12:47.954Z,1018.49
2019-02-06T03:13:48.401Z,1018.49
2019-02-06T03:14:47.867Z,1018.49
2019-02-06T03:15:47.956Z,1018.48
2019-02-06T03:16:47.873Z,1018.46
2019-02-06T03:17:48.167Z,1018.45
2019-02-06T03:18:47.906Z,1018.43
2019-02-06T03:19:48.259Z,1018.39
2019-02-06T03:21:47.811Z,1018.37
2019-02-06T03:23:47.706Z,1018.32
2019-02-06T03:24:48.020Z,1018.32
2019-02-06T03:25:47.747Z,1018.28
2019-02-06T03:26:47.560Z,1018.30
2019-02-06T03:27:47.535Z,1018.29
2019-02-06T03:28:47.735Z,1018.29
2019-02-06T03:29:47.538Z,1018.25
2019-02-06T03:30:47.466Z,1018.23
2019-02-06T03:31:47.746Z,1018.23
2019-02-06T03:32:47.434Z,1018.23
2019-02-06T03:33:47.538Z,1018.22
2019-02-06T03:34:47.410Z,1018.16
2019-02-06T03:35:47.496Z,1018.22
2019-02-06T03:36:47.343Z,1018.19
2019-02-06T03:37:47.292Z,1018.19
2019-02-06T03:38:47.706Z,1018.18
2019-02-06T03:39:47.405Z,1018.14
2019-02-06T03:40:47.452Z,1018.14
2019-02-06T03:41:47.324Z,1018.13
2019-02-06T03:42:47.426Z,1018.12
2019-02-06T03:43:47.699Z,1018.12
2019-02-06T03:44:47.406Z,1018.08
2019-02-06T03:45:47.156Z,1018.08
2019-02-06T03:46:47.183Z,1018.00
2019-02-06T03:47:47.020Z,1017.96
2019-02-06T03:48:47.044Z,1017.95
2019-02-06T03:49:46.981Z,1017.92
2019-02-06T03:50:47.346Z,1017.93
2019-02-06T03:51:47.199Z,1017.92
2019-02-06T03:52:47.090Z,1017.94
2019-02-06T03:53:46.942Z,1017.92
2019-02-06T03:54:47.314Z,1017.90
2019-02-06T03:55:46.912Z,1017.90
2019-02-06T03:56:47.457Z,1017.90
2019-02-06T03:57:46.881Z,1017.90
2019-02-06T03:58:46.744Z,1017.87
2019-02-06T03:59:46.847Z,1017.88
2019-02-06T04:00:46.689Z,1017.86
2019-02-06T04:01:47.027Z,1017.84
2019-02-06T04:02:47.013Z,1017.78
2019-02-06T04:03:46.858Z,1017.82
2019-02-06T04:04:46.826Z,1017.76
2019-02-06T04:05:47.352Z,1017.75
2019-02-06T04:06:55.065Z,1017.72
2019-02-06T04:07:46.596Z,1017.72
2019-02-06T04:09:46.475Z,1017.69
2019-02-06T04:10:46.473Z,1017.66
2019-02-06T04:11:46.399Z,1017.63
2019-02-06T04:12:46.372Z,1017.61
2019-02-06T04:14:46.616Z,1017.62
2019-02-06T04:15:46.301Z,1017.61
2019-02-06T04:16:46.265Z,1017.62
2019-02-06T04:18:46.217Z,1017.57
2019-02-06T04:20:46.258Z,1017.54
2019-02-06T04:21:46.435Z,1017.52
2019-02-06T04:22:46.160Z,1017.53
2019-02-06T04:23:46.094Z,1017.54
2019-02-06T04:24:46.061Z,1017.47
2019-02-06T04:25:46.028Z,1017.47
2019-02-06T04:26:46.043Z,1017.45
2019-02-06T04:27:45.987Z,1017.48
2019-02-06T04:28:46.307Z,1017.43
2019-02-06T04:29:45.940Z,1017.43
2019-02-06T04:30:47.751Z,1017.41
2019-02-06T04:31:45.905Z,1017.36
2019-02-06T04:32:45.965Z,1017.40
2019-02-06T04:33:45.845Z,1017.34
2019-02-06T04:34:45.803Z,1017.35
2019-02-06T04:35:46.071Z,1017.36
2019-02-06T04:37:45.805Z,1017.40
2019-02-06T04:38:45.730Z,1017.33
2019-02-06T04:39:45.676Z,1017.31
2019-02-06T04:41:45.628Z,1017.23
2019-02-06T04:42:45.900Z,1017.19
2019-02-06T04:43:45.791Z,1017.22
2019-02-06T04:44:45.538Z,1017.22
2019-02-06T04:45:45.540Z,1017.23
2019-02-06T04:46:45.550Z,1017.20
2019-02-06T04:47:45.984Z,1017.20
2019-02-06T04:48:45.477Z,1017.19
2019-02-06T04:49:45.715Z,1017.19
2019-02-06T04:50:45.392Z,1017.12
2019-02-06T04:51:45.356Z,1017.12
2019-02-06T04:52:45.387Z,1017.14
2019-02-06T04:53:45.294Z,1017.15
2019-02-06T04:54:45.267Z,1017.12
2019-02-06T04:55:45.249Z,1017.11
2019-02-06T04:56:45.530Z,1017.05
2019-02-06T04:57:45.202Z,1017.05
2019-02-06T04:58:45.323Z,1017.01
2019-02-06T04:59:45.189Z,1017.02
2019-02-06T05:00:45.153Z,1017.02
2019-02-06T05:01:45.143Z,1017.04
2019-02-06T05:02:45.053Z,1017.02
2019-02-06T05:03:46.468Z,1016.98
2019-02-06T05:04:45.085Z,1016.93
2019-02-06T05:05:45.174Z,1016.94
2019-02-06T05:06:45.032Z,1016.93
2019-02-06T05:07:44.958Z,1016.94
2019-02-06T05:09:44.892Z,1016.86
2019-02-06T05:10:45.309Z,1016.87
2019-02-06T05:11:44.872Z,1016.82
2019-02-06T05:12:44.859Z,1016.81
2019-02-06T05:13:44.883Z,1016.82
2019-02-06T05:14:44.790Z,1016.72
2019-02-06T05:16:45.038Z,1016.66
2019-02-06T05:17:44.832Z,1016.67
2019-02-06T05:18:44.667Z,1016.68
2019-02-06T05:19:44.640Z,1016.65
2019-02-06T05:20:44.695Z,1016.68
2019-02-06T05:21:44.556Z,1016.62
2019-02-06T05:22:44.877Z,1016.65
2019-02-06T05:23:44.671Z,1016.61
2019-02-06T05:24:44.490Z,1016.62
2019-02-06T05:25:44.449Z,1016.59
2019-02-06T05:26:44.835Z,1016.61
2019-02-06T05:28:45.908Z,1016.59
2019-02-06T05:29:44.400Z,1016.59
2019-02-06T05:30:45.726Z,1016.59
2019-02-06T05:31:44.336Z,1016.60
2019-02-06T05:32:44.656Z,1016.59
2019-02-06T05:34:44.699Z,1016.51
2019-02-06T05:35:44.788Z,1016.54
2019-02-06T05:36:44.195Z,1016.54
2019-02-06T05:37:44.344Z,1016.51
2019-02-06T05:38:44.106Z,1016.48
2019-02-06T05:39:44.074Z,1016.47
2019-02-06T05:42:44.085Z,1016.45
2019-02-06T05:43:43.959Z,1016.46
2019-02-06T05:44:44.032Z,1016.42
2019-02-06T05:45:43.914Z,1016.47
2019-02-06T05:46:43.875Z,1016.46
2019-02-06T05:47:43.988Z,1016.44
2019-02-06T05:48:44.080Z,1016.44
2019-02-06T05:49:43.829Z,1016.45
2019-02-06T05:50:43.776Z,1016.46
2019-02-06T05:53:45.311Z,1016.48
2019-02-06T05:54:43.706Z,1016.50
2019-02-06T05:55:44.119Z,1016.49
2019-02-06T05:56:43.703Z,1016.46
2019-02-06T05:57:43.614Z,1016.42
2019-02-06T05:58:43.553Z,1016.43
2019-02-06T05:59:43.589Z,1016.50
2019-02-06T06:00:43.504Z,1016.42
2019-02-06T06:01:43.790Z,1016.43
2019-02-06T06:02:43.446Z,1016.49
2019-02-06T06:07:45.504Z,1016.52
2019-02-06T06:08:43.809Z,1016.52
2019-02-06T06:09:43.279Z,1016.46
2019-02-06T06:10:43.347Z,1016.51
2019-02-06T06:11:43.371Z,1016.53
2019-02-06T06:12:43.179Z,1016.51
2019-02-06T06:13:43.450Z,1016.53
2019-02-06T06:14:43.150Z,1016.49
2019-02-06T06:18:43.024Z,1016.51
2019-02-06T06:19:43.014Z,1016.54
2019-02-06T06:20:43.264Z,1016.48
2019-02-06T06:22:42.924Z,1016.51
2019-02-06T06:23:42.943Z,1016.47
2019-02-06T06:24:42.861Z,1016.48
2019-02-06T06:25:42.841Z,1016.46
2019-02-06T06:26:43.111Z,1016.51
2019-02-06T06:27:42.796Z,1016.49
2019-02-06T06:28:42.755Z,1016.44
2019-02-06T06:29:42.774Z,1016.45
2019-02-06T06:30:42.701Z,1016.44
2019-02-06T06:31:42.672Z,1016.42
2019-02-06T06:32:44.040Z,1016.42
2019-02-06T06:33:44.120Z,1016.43
2019-02-06T06:34:42.861Z,1016.46
2019-02-06T06:35:42.720Z,1016.43
2019-02-06T06:36:46.891Z,1016.44
2019-02-06T06:37:42.919Z,1016.45
2019-02-06T06:38:44.134Z,1016.43
2019-02-06T06:40:44.383Z,1016.50
2019-02-06T06:41:54.621Z,1016.48
2019-02-06T06:42:42.393Z,1016.50
2019-02-06T06:43:42.398Z,1016.52
2019-02-06T06:45:42.634Z,1016.49
2019-02-06T06:46:43.220Z,1016.47
2019-02-06T06:48:43.042Z,1016.49
2019-02-06T06:49:42.829Z,1016.39
2019-02-06T06:50:42.273Z,1016.39
2019-02-06T06:51:42.442Z,1016.41
2019-02-06T06:53:42.666Z,1016.36
2019-02-06T06:54:42.474Z,1016.35
2019-02-06T06:56:42.061Z,1016.34
2019-02-06T06:57:41.979Z,1016.35
2019-02-06T06:58:42.072Z,1016.38
2019-02-06T06:59:42.113Z,1016.42
2019-02-06T07:00:43.815Z,1016.40
2019-02-06T07:03:41.835Z,1016.35
2019-02-06T07:04:41.807Z,1016.37
2019-02-06T07:05:41.788Z,1016.39
2019-02-06T07:06:42.098Z,1016.41
2019-02-06T07:07:41.738Z,1016.39
2019-02-06T07:08:41.738Z,1016.42
2019-02-06T07:09:41.712Z,1016.37
2019-02-06T07:10:41.651Z,1016.46
2019-02-06T07:11:42.041Z,1016.39
2019-02-06T07:12:41.883Z,1016.41
2019-02-06T07:14:41.666Z,1016.38
2019-02-06T07:15:41.671Z,1016.34
2019-02-06T07:16:41.506Z,1016.37
2019-02-06T07:17:41.448Z,1016.34
2019-02-06T07:18:41.742Z,1016.34
2019-02-06T07:19:41.410Z,1016.31
2019-02-06T07:20:41.376Z,1016.36
2019-02-06T07:21:41.348Z,1016.34
2019-02-06T07:22:41.390Z,1016.35
2019-02-06T07:23:41.292Z,1016.37
2019-02-06T07:24:41.626Z,1016.37
2019-02-06T07:25:41.287Z,1016.40
2019-02-06T07:26:41.220Z,1016.30
2019-02-06T07:37:41.359Z,1016.23
2019-02-06T07:38:40.922Z,1016.19
2019-02-06T07:39:40.884Z,1016.18
2019-02-06T07:40:40.891Z,1016.14
2019-02-06T07:41:40.819Z,1016.21
2019-02-06T07:42:40.792Z,1016.11
2019-02-06T07:43:41.119Z,1016.17
2019-02-06T07:44:40.734Z,1016.11
2019-02-06T07:45:40.707Z,1016.08
2019-02-06T07:46:40.707Z,1016.13
2019-02-06T07:47:40.666Z,1016.18
2019-02-06T07:48:40.641Z,1016.25
2019-02-06T07:49:40.619Z,1016.17
2019-02-06T07:50:40.874Z,1016.15
2019-02-06T07:51:40.557Z,1016.21
2019-02-06T07:52:40.725Z,1016.19
2019-02-06T07:53:40.604Z,1016.16
2019-02-06T07:54:40.497Z,1016.08
2019-02-06T07:56:40.722Z,1016.08
2019-02-06T07:57:40.393Z,1016.09
2019-02-06T07:58:40.441Z,1016.13
2019-02-06T07:59:40.466Z,1016.12
2019-02-06T08:04:41.540Z,1016.11
2019-02-06T08:05:40.206Z,1016.10
2019-02-06T08:07:40.346Z,1016.23
2019-02-06T08:12:40.080Z,1016.09
2019-02-06T08:13:39.990Z,1016.08
2019-02-06T08:19:39.829Z,1015.94
2019-02-06T08:20:40.312Z,1015.90
2019-02-06T08:21:39.851Z,1015.93
2019-02-06T08:22:39.874Z,1015.86
2019-02-06T08:28:39.635Z,1015.82
2019-02-06T08:29:39.585Z,1015.83
2019-02-06T08:30:39.554Z,1015.87
2019-02-06T08:31:39.905Z,1015.82
2019-02-06T08:32:40.077Z,1015.86
2019-02-06T08:33:39.488Z,1015.80
2019-02-06T08:34:39.458Z,1015.80
2019-02-06T08:35:39.477Z,1015.79
2019-02-06T08:36:39.397Z,1015.77
2019-02-06T08:37:39.373Z,1015.79
2019-02-06T08:38:47.406Z,1015.70
2019-02-06T08:39:39.344Z,1015.70
2019-02-06T08:40:39.336Z,1015.77
2019-02-06T08:41:39.274Z,1015.71
2019-02-06T08:42:39.321Z,1015.75
2019-02-06T08:51:39.036Z,1015.55
2019-02-06T08:55:38.963Z,1015.58
2019-02-06T08:58:38.882Z,1015.58
2019-02-06T08:59:38.846Z,1015.59
2019-02-06T09:00:38.962Z,1015.60
2019-02-06T09:01:38.885Z,1015.56
2019-02-06T09:02:39.122Z,1015.56
2019-02-06T09:03:39.042Z,1015.57
2019-02-06T09:04:38.818Z,1015.53
2019-02-06T09:05:38.827Z,1015.49
2019-02-06T09:06:38.680Z,1015.49
2019-02-06T09:07:38.680Z,1015.49
2019-02-06T09:08:39.067Z,1015.47
2019-02-06T09:09:38.602Z,1015.47
2019-02-06T09:14:38.781Z,1015.38
2019-02-06T09:15:38.471Z,1015.33
2019-02-06T09:16:38.463Z,1015.43
2019-02-06T09:17:38.391Z,1015.33
2019-02-06T09:18:38.392Z,1015.39
2019-02-06T09:19:38.358Z,1015.31
2019-02-06T09:20:38.704Z,1015.30
2019-02-06T09:21:38.362Z,1015.29
2019-02-06T09:22:38.580Z,1015.26
2019-02-06T09:24:38.227Z,1015.23
2019-02-06T09:25:38.230Z,1015.26
2019-02-06T09:26:38.539Z,1015.23
2019-02-06T09:27:38.483Z,1015.19
2019-02-06T09:28:38.230Z,1015.28
2019-02-06T09:31:38.057Z,1015.23
2019-02-06T09:32:38.392Z,1015.24
2019-02-06T09:33:38.024Z,1015.16
2019-02-06T09:34:37.995Z,1015.16
2019-02-06T09:35:38.008Z,1015.17
2019-02-06T09:36:37.946Z,1015.20
2019-02-06T09:37:37.934Z,1015.13
2019-02-06T09:38:38.236Z,1015.20
2019-02-06T09:39:37.870Z,1015.12
2019-02-06T09:40:37.870Z,1015.12
2019-02-06T09:41:37.845Z,1015.14
2019-02-06T09:42:37.806Z,1015.15
2019-02-06T09:43:37.778Z,1015.15
2019-02-06T09:44:37.795Z,1015.22
2019-02-06T09:45:38.017Z,1015.18
2019-02-06T09:46:37.797Z,1015.18
2019-02-06T09:47:37.724Z,1015.19
2019-02-06T09:48:37.655Z,1015.27
2019-02-06T09:49:37.696Z,1015.29
2019-02-06T09:50:37.753Z,1015.23
2019-02-06T09:51:38.080Z,1015.30
2019-02-06T09:52:37.567Z,1015.23
2019-02-06T09:53:37.678Z,1015.28
2019-02-06T09:54:37.508Z,1015.30
2019-02-06T09:55:37.577Z,1015.27
2019-02-06T09:56:37.648Z,1015.33
2019-02-06T10:09:39.456Z,1015.22
2019-02-06T10:11:37.139Z,1015.20
2019-02-06T10:12:37.099Z,1015.21
2019-02-06T10:13:37.057Z,1015.21
2019-02-06T10:14:37.158Z,1015.16
2019-02-06T10:15:37.259Z,1015.20
2019-02-06T10:16:37.083Z,1015.14
2019-02-06T10:17:37.021Z,1015.19
2019-02-06T10:18:37.081Z,1015.17
2019-02-06T10:19:36.928Z,1015.16
2019-02-06T10:22:37.271Z,1015.06
2019-02-06T10:23:36.831Z,1015.04
2019-02-06T10:24:36.831Z,1015.00
2019-02-06T10:25:36.802Z,1014.99
2019-02-06T10:26:36.745Z,1015.00
2019-02-06T10:27:36.872Z,1014.97
2019-02-06T10:30:36.656Z,1014.96
2019-02-06T10:31:36.650Z,1014.95
2019-02-06T10:32:36.631Z,1014.96
2019-02-06T10:33:36.750Z,1014.97
2019-02-06T10:34:36.615Z,1015.02
2019-02-06T10:35:36.906Z,1014.98
2019-02-06T10:36:36.549Z,1015.06
2019-02-06T10:37:36.508Z,1015.07
2019-02-06T10:38:36.474Z,1015.01
2019-02-06T10:39:36.454Z,1015.06
2019-02-06T10:40:36.527Z,1015.04
2019-02-06T10:41:36.846Z,1015.07
2019-02-06T10:42:36.385Z,1015.12
2019-02-06T10:43:36.365Z,1015.12
2019-02-06T10:44:36.345Z,1015.12
2019-02-06T10:45:36.373Z,1015.18
2019-02-06T10:46:36.607Z,1015.06
2019-02-06T10:47:36.564Z,1015.06
2019-02-06T10:48:36.252Z,1015.09
2019-02-06T10:50:36.211Z,1015.03
2019-02-06T10:51:36.386Z,1015.07
2019-02-06T10:53:36.462Z,1015.22
2019-02-06T10:54:36.227Z,1015.27
2019-02-06T10:55:36.177Z,1015.18
2019-02-06T10:56:36.081Z,1015.24
2019-02-06T10:57:36.066Z,1015.25
2019-02-06T10:58:36.072Z,1015.31
2019-02-06T10:59:37.756Z,1015.31
2019-02-06T11:00:36.265Z,1015.36
2019-02-06T11:02:36.801Z,1015.32
2019-02-06T11:03:36.446Z,1015.36
2019-02-06T11:04:36.273Z,1015.28
2019-02-06T11:05:36.209Z,1015.34
2019-02-06T11:06:36.006Z,1015.48
2019-02-06T11:07:35.848Z,1015.50
2019-02-06T11:08:36.275Z,1015.45
2019-02-06T11:09:45.908Z,1015.37
2019-02-06T11:10:35.764Z,1015.28
2019-02-06T11:11:36.083Z,1015.30
2019-02-06T11:12:35.836Z,1015.25
2019-02-06T11:13:35.835Z,1015.30
2019-02-06T11:14:35.723Z,1015.24
2019-02-06T11:15:35.733Z,1015.32
2019-02-06T11:18:38.195Z,1015.37
2019-02-06T11:19:35.693Z,1015.21
2019-02-06T11:20:35.581Z,1015.17
2019-02-06T11:21:35.696Z,1015.30
2019-02-06T11:22:35.803Z,1015.35
2019-02-06T11:23:35.820Z,1015.38
2019-02-06T11:24:35.530Z,1015.43
2019-02-06T11:26:35.565Z,1015.19
2019-02-06T11:27:35.690Z,1015.21
2019-02-06T11:28:35.509Z,1015.22
2019-02-06T11:29:36.056Z,1015.07
2019-02-06T11:30:35.398Z,1014.90
2019-02-06T11:31:36.254Z,1014.93
2019-02-06T11:32:35.418Z,1014.87
2019-02-06T11:33:35.414Z,1014.99
2019-02-06T11:34:35.633Z,1014.91
2019-02-06T11:35:35.729Z,1014.92
2019-02-06T11:38:35.281Z,1014.65
2019-02-06T11:39:35.524Z,1014.71
2019-02-06T11:40:35.225Z,1014.82
2019-02-06T11:41:35.593Z,1014.96
2019-02-06T11:45:35.176Z,1014.84
2019-02-06T11:46:35.109Z,1014.69
2019-02-06T11:47:35.412Z,1014.63
2019-02-06T11:48:35.136Z,1014.52
2019-02-06T11:49:35.076Z,1014.60
2019-02-06T11:50:35.044Z,1014.67
2019-02-06T11:51:35.582Z,1014.59
2019-02-06T11:52:35.025Z,1014.64
2019-02-06T11:53:35.336Z,1014.58
2019-02-06T12:07:34.779Z,1014.20
2019-02-06T12:08:34.803Z,1014.23
2019-02-06T12:09:34.816Z,1014.27
2019-02-06T12:10:34.708Z,1014.14
2019-02-06T12:11:34.942Z,1014.20
2019-02-06T12:12:34.617Z,1014.27
2019-02-06T12:13:34.623Z,1014.28
2019-02-06T12:14:35.028Z,1014.29
2019-02-06T12:20:34.534Z,1014.45
2019-02-06T12:25:34.671Z,1014.20
2019-02-06T12:26:34.351Z,1014.09
2019-02-06T12:30:34.770Z,1014.07
2019-02-06T12:31:34.353Z,1014.03
2019-02-06T12:32:34.288Z,1013.94
2019-02-06T12:33:36.655Z,1014.01
2019-02-06T12:34:34.282Z,1013.88
2019-02-06T12:35:34.172Z,1013.87
2019-02-06T12:36:34.458Z,1013.87
2019-02-06T12:37:34.233Z,1013.86
2019-02-06T12:38:34.169Z,1013.83
2019-02-06T12:40:34.121Z,1013.78
2019-02-06T12:41:34.053Z,1013.86
2019-02-06T12:42:34.451Z,1013.78
2019-02-06T12:43:34.033Z,1013.76
2019-02-06T12:44:34.043Z,1013.74
2019-02-06T12:45:34.020Z,1013.79
2019-02-06T12:46:34.052Z,1013.73
2019-02-06T12:47:33.951Z,1013.80
2019-02-06T12:49:33.908Z,1013.70
2019-02-06T12:50:33.929Z,1013.61
2019-02-06T12:53:33.924Z,1013.58
2019-02-06T12:54:34.173Z,1013.55
2019-02-06T12:55:34.169Z,1013.60
2019-02-06T12:56:33.788Z,1013.56
2019-02-06T12:58:33.737Z,1013.51
2019-02-06T12:59:33.707Z,1013.62
2019-02-06T13:01:33.799Z,1013.47
2019-02-06T13:02:33.652Z,1013.44
2019-02-06T13:03:34.262Z,1013.51
2019-02-06T13:04:33.657Z,1013.48
2019-02-06T13:05:33.589Z,1013.58
2019-02-06T13:06:33.919Z,1013.48
2019-02-06T13:07:33.623Z,1013.42
2019-02-06T13:08:33.545Z,1013.42
2019-02-06T13:09:33.560Z,1013.43
2019-02-06T13:10:34.541Z,1013.51
2019-02-06T13:11:33.472Z,1013.45
2019-02-06T13:13:33.447Z,1013.47
2019-02-06T13:20:33.703Z,1013.26
2019-02-06T13:21:33.324Z,1013.31
2019-02-06T13:23:33.226Z,1013.23
2019-02-06T13:24:33.608Z,1013.42
2019-02-06T13:26:33.249Z,1013.20
2019-02-06T13:27:33.151Z,1013.11
2019-02-06T13:28:33.177Z,1013.17
2019-02-06T13:29:33.101Z,1013.12
2019-02-06T13:30:33.467Z,1013.09
2019-02-06T13:31:33.079Z,1013.07
2019-02-06T13:32:33.058Z,1013.06
2019-02-06T13:33:33.065Z,1013.00
2019-02-06T13:34:33.015Z,1012.95
2019-02-06T13:40:44.733Z,1012.89
2019-02-06T13:41:32.858Z,1012.94
2019-02-06T13:42:33.278Z,1012.89
2019-02-06T13:43:32.822Z,1012.90
2019-02-06T13:44:32.791Z,1012.90
2019-02-06T13:45:32.775Z,1012.93
2019-02-06T13:47:32.730Z,1012.95
2019-02-06T13:49:32.986Z,1012.82
2019-02-06T13:51:32.720Z,1012.87
2019-02-06T13:55:32.853Z,1012.87
2019-02-06T13:56:32.553Z,1012.82
2019-02-06T13:57:34.151Z,1012.85
2019-02-06T13:58:32.649Z,1012.81
2019-02-06T13:59:32.608Z,1012.81
2019-02-06T14:00:32.628Z,1012.77
2019-02-06T14:01:32.989Z,1012.75
2019-02-06T14:11:32.217Z,1012.70
2019-02-06T14:17:32.185Z,1012.67
2019-02-06T14:18:32.187Z,1012.67
2019-02-06T14:19:32.175Z,1012.67
2019-02-06T14:21:32.108Z,1012.63
2019-02-06T14:24:32.071Z,1012.61
2019-02-06T14:27:32.025Z,1012.55
2019-02-06T14:28:31.888Z,1012.54
2019-02-06T14:31:31.858Z,1012.55
2019-02-06T14:34:31.747Z,1012.49
2019-02-06T14:35:32.436Z,1012.43
2019-02-06T14:36:31.695Z,1012.44
2019-02-06T14:37:31.819Z,1012.50
2019-02-06T14:38:32.003Z,1012.35
2019-02-06T14:39:33.041Z,1012.45
2019-02-06T14:43:32.080Z,1012.43
2019-02-06T14:44:32.027Z,1012.39
2019-02-06T14:48:31.715Z,1012.39
2019-02-06T14:49:31.534Z,1012.37
2019-02-06T14:50:31.438Z,1012.31
2019-02-06T14:51:31.828Z,1012.33
2019-02-06T14:52:31.341Z,1012.31
2019-02-06T14:53:31.430Z,1012.30
2019-02-06T14:54:31.314Z,1012.31
2019-02-06T14:55:31.285Z,1012.27
2019-02-06T15:00:31.367Z,1012.34
2019-02-06T15:01:31.949Z,1012.26
2019-02-06T15:02:31.772Z,1012.25
2019-02-06T15:03:32.562Z,1012.29
2019-02-06T15:04:31.238Z,1012.26
2019-02-06T15:05:31.153Z,1012.26
2019-02-06T15:06:31.036Z,1012.28
2019-02-06T15:07:31.080Z,1012.24
2019-02-06T15:08:31.084Z,1012.30
2019-02-06T15:09:31.262Z,1012.24
2019-02-06T15:10:30.937Z,1012.19
2019-02-06T15:11:30.925Z,1012.23
2019-02-06T15:12:30.901Z,1012.25
2019-02-06T15:13:31.836Z,1012.19
2019-02-06T15:15:31.172Z,1012.23
2019-02-06T15:17:30.822Z,1012.16
2019-02-06T15:18:30.816Z,1012.16
2019-02-06T15:20:31.781Z,1012.16
2019-02-06T15:21:31.063Z,1012.11
2019-02-06T15:23:33.158Z,1012.11
2019-02-06T15:24:30.656Z,1012.12
2019-02-06T15:25:31.128Z,1012.12
2019-02-06T15:28:30.886Z,1012.08
2019-02-06T15:29:30.668Z,1012.10
2019-02-06T15:30:30.575Z,1012.12
2019-02-06T15:31:30.572Z,1012.09
2019-02-06T15:33:30.812Z,1012.11
2019-02-06T15:34:30.495Z,1012.21
2019-02-06T15:48:30.113Z,1012.10
2019-02-06T15:49:30.109Z,1012.11
2019-02-06T15:50:30.276Z,1012.04
2019-02-06T15:51:30.381Z,1012.05
2019-02-06T15:52:30.096Z,1012.04
2019-02-06T15:53:30.199Z,1012.02
2019-02-06T15:54:29.947Z,1012.02
2019-02-06T15:55:29.972Z,1011.98
2019-02-06T15:56:29.965Z,1012.01
2019-02-06T15:57:30.264Z,1011.94
2019-02-06T15:58:29.857Z,1011.97
2019-02-06T15:59:29.944Z,1011.92
2019-02-06T16:00:29.918Z,1011.94